createdAt,value
2018-05-25T02:24:52.499Z,3
2018-05-25T02:34:23.051Z,7
2018-05-25T02:38:23.260Z,10
2018-05-25T02:40:53.403Z,13
2018-05-25T02:42:53.512Z,17
2018-05-25T02:44:23.683Z,20
2018-05-25T02:45:53.749Z,23
2018-05-25T02:46:53.791Z,27
2018-05-25T02:47:53.842Z,30
2018-05-25T02:48:53.997Z,33
2018-05-25T02:49:53.945Z,37
2018-05-25T02:50:24.002Z,40
2018-05-25T02:51:24.117Z,43
2018-05-25T02:51:54.073Z,47
2018-05-25T02:52:24.089Z,50
2018-05-25T02:52:54.122Z,53
2018-05-25T02:53:54.232Z,57
2018-05-25T02:54:24.245Z,60
2018-05-25T02:54:54.260Z,63
2018-05-25T02:55:24.308Z,67
2018-05-25T02:55:54.340Z,73
2018-05-25T02:56:24.420Z,77
2018-05-25T02:56:54.397Z,80
2018-05-25T02:57:24.472Z,83
2018-05-25T02:57:54.437Z,90
2018-05-25T02:58:24.522Z,93
2018-05-25T02:58:54.513Z,100
2018-05-25T02:59:24.557Z,103
2018-05-25T02:59:54.592Z,110
2018-05-25T03:00:24.781Z,113
2018-05-25T03:00:54.616Z,120
2018-05-25T03:01:24.788Z,127
2018-05-25T03:01:54.839Z,130
2018-05-25T03:02:24.749Z,137
2018-05-25T03:02:54.795Z,143
2018-05-25T03:03:24.828Z,150
2018-05-25T03:03:54.813Z,157
2018-05-25T03:04:24.910Z,163
2018-05-25T03:04:54.921Z,170
2018-05-25T03:05:24.955Z,180
2018-05-25T03:05:55.252Z,187
2018-05-25T03:06:25.058Z,197
2018-05-25T03:06:55.051Z,203
2018-05-25T03:07:25.071Z,213
2018-05-25T03:07:55.098Z,217
2018-05-25T03:08:25.129Z,227
2018-05-25T03:08:55.139Z,237
2018-05-25T03:09:25.200Z,243
2018-05-25T03:09:55.233Z,253
2018-05-25T03:10:25.258Z,263
2018-05-25T03:10:55.290Z,273
2018-05-25T03:11:25.342Z,287
2018-05-25T03:11:55.371Z,297
2018-05-25T03:12:25.402Z,307
2018-05-25T03:12:55.401Z,320
2018-05-25T03:13:25.440Z,330
2018-05-25T03:13:55.482Z,343
2018-05-25T03:14:25.512Z,353
2018-05-25T03:14:55.509Z,367
2018-05-25T03:15:25.567Z,380
2018-05-25T03:15:55.589Z,393
2018-05-25T03:16:25.609Z,407
2018-05-25T03:16:55.692Z,423
2018-05-25T03:17:25.670Z,433
2018-05-25T03:17:55.676Z,447
2018-05-25T03:18:25.759Z,463
2018-05-25T03:18:55.734Z,477
2018-05-25T03:19:25.802Z,493
2018-05-25T03:19:55.846Z,507
2018-05-25T03:20:25.828Z,523
2018-05-25T03:20:55.870Z,540
2018-05-25T03:21:25.885Z,557
2018-05-25T03:21:55.945Z,577
2018-05-25T03:22:25.968Z,593
2018-05-25T03:22:56.044Z,610
2018-05-25T03:23:26.030Z,630
2018-05-25T03:23:56.030Z,643
2018-05-25T03:24:26.119Z,663
2018-05-25T03:24:56.103Z,683
2018-05-25T03:25:26.211Z,703
2018-05-25T03:25:56.155Z,723
2018-05-25T03:26:26.226Z,743
2018-05-25T03:26:56.255Z,763
2018-05-25T03:27:26.352Z,787
2018-05-25T03:27:56.283Z,807
2018-05-25T03:28:26.337Z,827
2018-05-25T03:28:56.420Z,850
2018-05-25T03:29:26.419Z,867
2018-05-25T03:29:56.428Z,890
2018-05-25T03:30:26.537Z,910
2018-05-25T03:30:56.528Z,933
2018-05-25T03:31:26.566Z,957
2018-05-25T03:31:56.621Z,980
2018-05-25T03:32:26.603Z,1003
2018-05-25T03:32:56.643Z,1027
2018-05-25T03:33:26.631Z,1050
2018-05-25T03:33:56.726Z,1070
2018-05-25T03:34:26.804Z,1093
2018-05-25T03:34:56.776Z,1117
2018-05-25T03:35:26.851Z,1140
2018-05-25T03:35:56.862Z,1163
2018-05-25T03:36:26.855Z,1187
2018-05-25T03:36:56.890Z,1213
2018-05-25T03:37:26.918Z,1237
2018-05-25T03:37:56.924Z,1263
2018-05-25T03:38:26.962Z,1283
2018-05-25T03:38:56.980Z,1307
2018-05-25T03:39:26.997Z,1333
2018-05-25T03:39:57.084Z,1357
2018-05-25T03:40:27.200Z,1383
2018-05-25T03:40:57.141Z,1410
2018-05-25T03:41:27.166Z,1433
2018-05-25T03:41:57.168Z,1460
2018-05-25T03:42:27.239Z,1487
2018-05-25T03:42:57.258Z,1510
2018-05-25T03:43:27.287Z,1537
2018-05-25T03:43:57.333Z,1563
2018-05-25T03:44:27.354Z,1590
2018-05-25T03:44:57.352Z,1617
2018-05-25T03:45:27.434Z,1643
2018-05-25T03:45:57.427Z,1670
2018-05-25T03:46:27.477Z,1697
2018-05-25T03:46:57.476Z,1720
2018-05-25T03:47:27.532Z,1747
2018-05-25T03:47:57.601Z,1773
2018-05-25T03:48:27.605Z,1797
2018-05-25T03:48:57.650Z,1823
2018-05-25T03:49:27.662Z,1850
2018-05-25T03:49:57.663Z,1877
2018-05-25T03:50:27.746Z,1900
2018-05-25T03:50:57.753Z,1920
2018-05-25T03:51:27.739Z,1947
2018-05-25T03:51:58.000Z,1973
2018-05-25T03:52:27.841Z,1997
2018-05-25T03:52:57.875Z,2023
2018-05-25T03:53:27.922Z,2047
2018-05-25T03:53:57.906Z,2073
2018-05-25T03:54:27.997Z,2100
2018-05-25T03:54:58.043Z,2127
2018-05-25T03:55:28.064Z,2147
2018-05-25T03:55:58.063Z,2177
2018-05-25T03:56:28.091Z,2203
2018-05-25T03:56:58.088Z,2233
2018-05-25T03:57:28.146Z,2260
2018-05-25T03:57:58.144Z,2290
2018-05-25T03:58:28.312Z,2320
2018-05-25T03:58:58.323Z,2347
2018-05-25T03:59:28.398Z,2370
2018-05-25T03:59:58.374Z,2393
2018-05-25T04:00:28.502Z,2420
2018-05-25T04:00:58.450Z,2447
2018-05-25T04:01:28.472Z,2473
2018-05-25T04:01:58.511Z,2500
2018-05-25T04:02:28.516Z,2527
2018-05-25T04:02:58.571Z,2553
2018-05-25T04:03:28.619Z,2577
2018-05-25T04:03:58.642Z,2603
2018-05-25T04:04:28.647Z,2630
2018-05-25T04:04:58.685Z,2660
2018-05-25T04:05:28.746Z,2687
2018-05-25T04:05:58.822Z,2713
2018-05-25T04:06:28.776Z,2743
2018-05-25T04:06:58.803Z,2770
2018-05-25T04:07:28.814Z,2797
2018-05-25T04:07:58.915Z,2823
2018-05-25T04:08:28.883Z,2853
2018-05-25T04:08:58.902Z,2880
2018-05-25T04:09:28.946Z,2907
2018-05-25T04:09:59.013Z,2937
2018-05-25T04:10:29.123Z,2967
2018-05-25T04:10:59.085Z,2990
2018-05-25T04:11:29.107Z,3020
2018-05-25T04:11:59.103Z,3053
2018-05-25T04:12:29.125Z,3090
2018-05-25T04:12:59.184Z,3127
2018-05-25T04:13:29.214Z,3167
2018-05-25T04:13:59.288Z,3203
2018-05-25T04:14:29.292Z,3250
2018-05-25T04:14:59.322Z,3297
2018-05-25T04:15:29.377Z,3350
2018-05-25T04:15:59.326Z,3407
2018-05-25T04:16:29.397Z,3460
2018-05-25T04:16:59.391Z,3520
2018-05-25T04:17:29.442Z,3583
2018-05-25T04:17:59.516Z,3640
2018-05-25T04:18:29.508Z,3697
2018-05-25T04:18:59.697Z,3747
2018-05-25T04:19:29.598Z,3783
2018-05-25T04:19:59.668Z,3807
2018-05-25T04:20:29.676Z,3823
2018-05-25T04:20:59.706Z,3837
2018-05-25T04:21:29.725Z,3840
2018-05-25T04:21:59.733Z,3847
2018-05-25T04:22:29.770Z,3853
2018-05-25T04:23:29.871Z,3857
2018-05-25T04:24:29.867Z,3860
2018-05-25T04:24:59.963Z,3863
2018-05-25T04:25:29.984Z,3870
2018-05-25T04:26:00.018Z,3877
2018-05-25T04:26:30.095Z,3883
2018-05-25T04:27:00.052Z,3890
2018-05-25T04:27:30.095Z,3893
2018-05-25T04:28:00.100Z,3903
2018-05-25T04:28:30.156Z,3913
2018-05-25T04:29:00.180Z,3920
2018-05-25T04:29:30.282Z,3930
2018-05-25T04:30:00.307Z,3940
2018-05-25T04:30:30.244Z,3953
2018-05-25T04:31:01.484Z,3963
2018-05-25T04:31:30.358Z,3977
2018-05-25T04:32:01.606Z,3993
2018-05-25T04:32:30.407Z,4010
2018-05-25T04:33:02.092Z,4027
2018-05-25T04:33:30.478Z,4040
2018-05-25T04:34:01.668Z,4053
2018-05-25T04:34:30.530Z,4070
2018-05-25T04:35:01.556Z,4087
2018-05-25T04:35:30.584Z,4103
2018-05-25T04:36:01.006Z,4120
2018-05-25T04:36:30.672Z,4140
2018-05-25T04:37:01.477Z,4160
2018-05-25T04:37:30.719Z,4177
2018-05-25T04:38:01.759Z,4200
2018-05-25T04:38:30.771Z,4220
2018-05-25T04:39:01.751Z,4237
2018-05-25T04:39:30.899Z,4263
2018-05-25T04:40:01.838Z,4280
2018-05-25T04:40:30.916Z,4307
2018-05-25T04:41:01.062Z,4333
2018-05-25T04:41:30.951Z,4360
2018-05-25T04:42:01.061Z,4390
2018-05-25T04:42:31.029Z,4427
2018-05-25T04:43:01.786Z,4460
2018-05-25T04:43:31.098Z,4493
2018-05-25T04:44:01.613Z,4530
2018-05-25T04:44:31.140Z,4567
2018-05-25T04:45:01.697Z,4593
2018-05-25T04:45:31.210Z,4620
2018-05-25T04:46:01.740Z,4637
2018-05-25T04:46:31.261Z,4657
2018-05-25T04:47:01.354Z,4670
2018-05-25T04:47:31.321Z,4687
2018-05-25T04:48:01.635Z,4693
2018-05-25T04:48:31.433Z,4723
2018-05-25T04:49:01.780Z,4747
2018-05-25T04:49:31.411Z,4770
2018-05-25T04:50:02.715Z,4800
2018-05-25T04:50:31.602Z,4840
2018-05-25T04:51:01.747Z,4873
2018-05-25T04:51:31.574Z,4907
2018-05-25T04:52:01.562Z,4943
2018-05-25T04:52:31.627Z,5517
2018-05-25T04:53:01.651Z,6620
2018-05-25T04:53:31.687Z,7807
2018-05-25T04:54:01.704Z,8627
2018-05-25T04:54:31.721Z,8670
2018-05-25T04:55:02.374Z,8127
2018-05-25T04:55:31.817Z,7517
2018-05-25T04:56:01.840Z,7897
2018-05-25T04:56:31.840Z,10563
2018-05-25T04:57:01.890Z,8783
2018-05-25T04:57:31.921Z,9547
2018-05-25T04:58:01.896Z,9273
2018-05-25T04:58:31.971Z,9587
2018-05-25T04:59:01.982Z,9193
2018-05-25T04:59:32.016Z,8863
2018-05-25T05:00:03.334Z,8783
2018-05-25T05:00:32.078Z,9727
2018-05-25T05:01:02.104Z,9483
2018-05-25T05:01:32.182Z,8330
2018-05-25T05:02:02.188Z,7760
2018-05-25T05:02:32.242Z,6180
2018-05-25T05:03:02.241Z,6293
2018-05-25T05:03:32.270Z,6950
2018-05-25T05:04:02.502Z,6510
2018-05-25T05:04:32.376Z,7980
2018-05-25T05:05:02.367Z,9120
2018-05-25T05:05:32.388Z,9870
2018-05-25T05:06:02.449Z,10667
2018-05-25T05:06:32.477Z,10663
2018-05-25T05:07:02.574Z,11507
2018-05-25T05:07:32.537Z,11447
2018-05-25T05:08:02.563Z,11023
2018-05-25T05:08:32.638Z,9953
2018-05-25T05:09:02.654Z,8810
2018-05-25T05:09:32.745Z,6457
2018-05-25T05:10:02.808Z,6907
2018-05-25T05:10:33.065Z,6960
2018-05-25T05:11:02.933Z,6610
2018-05-25T05:11:32.949Z,7027
2018-05-25T05:12:03.000Z,7040
2018-05-25T05:12:33.017Z,7313
2018-05-25T05:13:02.915Z,8080
2018-05-25T05:13:33.067Z,8670
2018-05-25T05:14:02.982Z,9697
2018-05-25T05:14:32.982Z,8873
2018-05-25T05:15:03.049Z,8240
2018-05-25T05:15:33.039Z,7557
2018-05-25T05:16:03.038Z,7433
2018-05-25T05:16:33.169Z,7250
2018-05-25T05:17:03.217Z,7133
2018-05-25T05:17:33.154Z,6547
2018-05-25T05:18:03.189Z,6780
2018-05-25T05:18:33.229Z,6017
2018-05-25T05:19:03.285Z,6060
2018-05-25T05:19:33.308Z,6423
2018-05-25T05:20:03.324Z,6623
2018-05-25T05:20:33.403Z,6597
2018-05-25T05:21:03.452Z,6680
2018-05-25T05:21:33.391Z,6960
2018-05-25T05:22:03.615Z,7700
2018-05-25T05:22:33.495Z,8380
2018-05-25T05:23:03.558Z,9087
2018-05-25T05:23:33.664Z,9037
2018-05-25T05:24:03.613Z,9453
2018-05-25T05:24:33.634Z,9720
2018-05-25T05:25:03.659Z,10540
2018-05-25T05:25:33.783Z,11953
2018-05-25T05:26:03.774Z,12407
2018-05-25T05:26:33.785Z,12600
2018-05-25T05:27:03.878Z,11317
2018-05-25T05:27:33.785Z,10143
2018-05-25T05:28:03.876Z,9197
2018-05-25T05:28:33.858Z,7750
2018-05-25T05:29:04.004Z,8370
2018-05-25T05:29:34.009Z,8517
2018-05-25T05:30:03.992Z,9533
2018-05-25T05:30:34.040Z,12523
2018-05-25T05:31:04.064Z,15237
2018-05-25T05:31:34.038Z,15697
2018-05-25T05:32:04.055Z,14337
2018-05-25T05:32:34.669Z,14443
2018-05-25T05:33:04.420Z,15083
2018-05-25T05:33:34.647Z,16797
2018-05-25T05:34:04.672Z,16793
2018-05-25T05:34:35.002Z,16310
2018-05-25T05:35:04.806Z,16223
2018-05-25T05:35:34.695Z,15027
2018-05-25T05:36:04.731Z,13887
2018-05-25T05:36:34.995Z,11917
2018-05-25T05:37:04.931Z,9657
2018-05-25T05:37:34.853Z,9333
2018-05-25T05:38:04.984Z,8547
2018-05-25T05:38:35.036Z,9783
2018-05-25T05:39:05.206Z,9387
2018-05-25T05:39:34.962Z,10403
2018-05-25T05:40:04.962Z,7753
2018-05-25T05:40:35.075Z,7590
2018-05-25T05:41:05.140Z,7287
2018-05-25T05:41:35.087Z,8247
2018-05-25T05:42:05.124Z,8390
2018-05-25T05:42:35.201Z,9087
2018-05-25T05:43:05.272Z,9230
2018-05-25T05:43:35.217Z,9020
2018-05-25T05:44:05.276Z,7053
2018-05-25T05:44:35.307Z,8180
2018-05-25T05:45:05.303Z,6793
2018-05-25T05:45:35.377Z,6770
2018-05-25T05:46:05.384Z,6433
2018-05-25T05:46:35.553Z,6687
2018-05-25T05:47:05.537Z,6453
2018-05-25T05:47:35.541Z,6463
2018-05-25T05:48:05.551Z,6747
2018-05-25T05:48:35.619Z,6433
2018-05-25T05:49:05.667Z,6450
2018-05-25T05:50:06.224Z,6457
2018-05-25T05:50:35.997Z,6447
2018-05-25T05:51:05.842Z,6453
2018-05-25T05:51:35.741Z,6457
2018-05-25T05:52:05.785Z,6537
2018-05-25T05:52:35.842Z,6490
2018-05-25T05:53:06.274Z,6617
2018-05-25T05:53:36.730Z,6550
2018-05-25T05:54:06.997Z,6567
2018-05-25T05:54:36.108Z,6553
2018-05-25T05:55:06.933Z,6570
2018-05-25T05:55:36.248Z,6717
2018-05-25T05:56:06.200Z,8250
2018-05-25T05:56:36.320Z,6910
2018-05-25T05:57:06.387Z,8353
2018-05-25T05:57:36.350Z,11147
2018-05-25T05:58:06.352Z,12100
2018-05-25T05:58:36.392Z,10237
2018-05-25T05:59:06.442Z,9813
2018-05-25T05:59:36.473Z,10383
2018-05-25T06:00:06.628Z,7337
2018-05-25T06:00:36.537Z,7803
2018-05-25T06:01:06.643Z,6847
2018-05-25T06:01:36.812Z,7297
2018-05-25T06:02:06.567Z,7273
2018-05-25T06:02:36.718Z,6900
2018-05-25T06:03:06.698Z,7227
2018-05-25T06:03:36.750Z,6997
2018-05-25T06:04:06.705Z,7147
2018-05-25T06:04:36.827Z,8287
2018-05-25T06:05:06.924Z,8363
2018-05-25T06:05:36.998Z,9700
2018-05-25T06:06:06.892Z,7477
2018-05-25T06:06:37.122Z,7467
2018-05-25T06:07:06.906Z,7710
2018-05-25T06:07:36.983Z,8113
2018-05-25T06:08:07.003Z,7547
2018-05-25T06:08:37.209Z,7347
2018-05-25T06:09:07.186Z,7740
2018-05-25T06:09:37.173Z,7827
2018-05-25T06:10:07.214Z,8533
2018-05-25T06:10:37.337Z,9137
2018-05-25T06:11:07.296Z,9227
2018-05-25T06:11:37.431Z,9467
2018-05-25T06:12:07.381Z,9377
2018-05-25T06:12:37.424Z,9357
2018-05-25T06:13:07.490Z,10350
2018-05-25T06:13:37.508Z,9617
2018-05-25T06:14:07.611Z,10240
2018-05-25T06:14:37.539Z,8753
2018-05-25T06:15:07.602Z,8987
2018-05-25T06:15:37.622Z,9217
2018-05-25T06:16:07.595Z,8893
2018-05-25T06:16:37.698Z,8300
2018-05-25T06:17:07.646Z,9507
2018-05-25T06:17:37.788Z,9663
2018-05-25T06:18:07.728Z,8997
2018-05-25T06:18:37.762Z,8903
2018-05-25T06:19:07.881Z,7900
2018-05-25T06:19:37.804Z,7330
2018-05-25T06:20:07.865Z,7940
2018-05-25T06:20:37.857Z,7870
2018-05-25T06:21:07.915Z,7420
2018-05-25T06:21:38.283Z,8690
2018-05-25T06:22:38.070Z,10937
2018-05-25T06:23:08.123Z,11823
2018-05-25T06:23:38.181Z,12160
2018-05-25T06:24:08.143Z,13353
2018-05-25T06:24:38.189Z,10643
2018-05-25T06:25:08.217Z,12920
2018-05-25T06:25:38.184Z,13923
2018-05-25T06:26:08.223Z,12593
2018-05-25T06:26:38.330Z,15667
2018-05-25T06:27:08.275Z,11823
2018-05-25T06:27:38.283Z,16633
2018-05-25T06:28:08.343Z,13947
2018-05-25T06:28:38.396Z,13577
2018-05-25T06:29:08.469Z,12523
2018-05-25T06:29:38.463Z,13283
2018-05-25T06:30:08.482Z,10013
2018-05-25T06:30:38.516Z,10500
2018-05-25T06:31:08.490Z,9217
2018-05-25T06:31:38.675Z,8673
2018-05-25T06:32:08.598Z,11503
2018-05-25T06:32:38.639Z,10680
2018-05-25T06:33:08.777Z,11563
2018-05-25T06:33:38.751Z,8627
2018-05-25T06:34:09.003Z,8980
2018-05-25T06:34:38.800Z,10890
2018-05-25T06:35:08.795Z,8383
2018-05-25T06:35:38.876Z,11850
2018-05-25T06:36:08.856Z,10843
2018-05-25T06:36:38.860Z,8350
2018-05-25T06:37:08.922Z,11340
2018-05-25T06:37:38.953Z,11880
2018-05-25T06:38:08.981Z,8577
2018-05-25T06:38:39.055Z,9437
2018-05-25T06:39:09.065Z,9137
2018-05-25T06:39:39.074Z,8600
2018-05-25T06:40:09.104Z,9813
2018-05-25T06:40:39.211Z,12807
2018-05-25T06:41:09.168Z,14993
2018-05-25T06:41:39.260Z,9313
2018-05-25T06:42:09.284Z,10747
2018-05-25T06:42:39.289Z,8710
2018-05-25T06:43:09.357Z,10397
2018-05-25T06:43:39.335Z,8857
2018-05-25T06:44:09.332Z,8643
2018-05-25T06:44:39.348Z,9093
2018-05-25T06:45:09.561Z,9687
2018-05-25T06:45:39.453Z,11813
2018-05-25T06:46:09.448Z,9687
2018-05-25T06:46:39.516Z,12193
2018-05-25T06:47:09.534Z,10693
2018-05-25T06:47:39.572Z,8977
2018-05-25T06:48:09.542Z,15100
2018-05-25T06:48:39.624Z,16783
2018-05-25T06:49:09.630Z,15980
2018-05-25T06:49:39.684Z,21543
2018-05-25T06:50:09.971Z,14733
2018-05-25T06:50:39.749Z,20700
2018-05-25T06:51:09.788Z,15830
2018-05-25T06:51:39.812Z,18773
2018-05-25T06:52:09.855Z,10673
2018-05-25T06:52:39.879Z,9807
2018-05-25T06:53:09.904Z,9647
2018-05-25T06:53:39.931Z,9727
2018-05-25T06:54:09.967Z,9013
2018-05-25T06:54:39.993Z,10320
2018-05-25T06:55:10.053Z,10103
2018-05-25T06:55:40.065Z,12053
2018-05-25T06:56:10.084Z,8873
2018-05-25T06:56:40.146Z,18237
2018-05-25T06:57:10.208Z,8740
2018-05-25T06:57:40.321Z,13203
2018-05-25T06:58:10.206Z,8537
2018-05-25T06:58:40.282Z,15990
2018-05-25T06:59:10.305Z,19597
2018-05-25T06:59:40.339Z,20793
2018-05-25T07:00:10.349Z,16730
2018-05-25T07:00:40.371Z,17437
2018-05-25T07:01:10.371Z,17523
2018-05-25T07:01:40.396Z,11970
2018-05-25T07:02:10.456Z,19087
2018-05-25T07:02:40.491Z,13970
2018-05-25T07:03:10.485Z,11750
2018-05-25T07:03:40.529Z,9237
2018-05-25T07:04:10.544Z,10503
2018-05-25T07:04:40.593Z,9567
2018-05-25T07:05:10.620Z,10340
2018-05-25T07:05:40.669Z,9000
2018-05-25T07:06:10.652Z,9277
2018-05-25T07:06:40.698Z,8443
2018-05-25T07:07:10.719Z,10583
2018-05-25T07:07:40.757Z,10363
2018-05-25T07:08:10.834Z,8733
2018-05-25T07:08:40.818Z,8563
2018-05-25T07:09:10.868Z,10887
2018-05-25T07:09:40.888Z,8673
2018-05-25T07:10:10.972Z,9100
2018-05-25T07:10:40.994Z,8843
2018-05-25T07:11:10.960Z,8977
2018-05-25T07:11:41.034Z,9287
2018-05-25T07:12:11.043Z,11077
2018-05-25T07:12:41.142Z,8743
2018-05-25T07:13:11.077Z,10520
2018-05-25T07:13:41.174Z,9987
2018-05-25T07:14:11.174Z,9163
2018-05-25T07:14:41.212Z,9457
2018-05-25T07:15:11.238Z,14747
2018-05-25T07:15:41.305Z,16890
2018-05-25T07:16:11.318Z,16153
2018-05-25T07:16:41.425Z,31050
2018-05-25T07:17:11.377Z,20583
2018-05-25T07:17:41.435Z,19437
2018-05-25T07:18:11.549Z,17983
2018-05-25T07:18:41.448Z,13720
2018-05-25T07:19:11.477Z,12670
2018-05-25T07:19:41.584Z,28847
2018-05-25T07:20:11.636Z,26987
2018-05-25T07:20:41.595Z,18207
2018-05-25T07:21:11.644Z,27247
2018-05-25T07:21:41.701Z,10927
2018-05-25T07:22:11.667Z,13093
2018-05-25T07:22:41.784Z,15180
2018-05-25T07:23:11.751Z,37020
2018-05-25T07:23:41.743Z,24110
2018-05-25T07:24:11.741Z,31043
2018-05-25T07:24:41.841Z,37940
2018-05-25T07:25:11.863Z,37533
2018-05-25T07:25:41.894Z,38090
2018-05-25T07:26:11.906Z,38580
2018-05-25T07:26:42.199Z,37387
2018-05-25T07:27:11.982Z,37550
2018-05-25T07:27:42.006Z,38943
2018-05-25T07:28:12.069Z,39047
2018-05-25T07:28:42.147Z,39230
2018-05-25T07:29:12.155Z,39520
2018-05-25T07:29:42.159Z,39727
2018-05-25T07:30:12.146Z,39840
2018-05-25T07:30:42.235Z,39910
2018-05-25T07:31:12.286Z,40010
2018-05-25T07:31:42.279Z,40110
2018-05-25T07:32:12.280Z,40067
2018-05-25T07:32:42.373Z,40217
2018-05-25T07:33:12.377Z,22740
2018-05-25T07:33:42.430Z,40070
2018-05-25T07:34:12.410Z,40147
2018-05-25T07:34:42.443Z,40157
2018-05-25T07:35:12.468Z,40317
2018-05-25T07:35:42.559Z,40507
2018-05-25T07:36:12.527Z,40580
2018-05-25T07:36:42.566Z,39057
2018-05-25T07:37:12.575Z,40977
2018-05-25T07:37:42.653Z,41087
2018-05-25T07:38:12.649Z,41313
2018-05-25T07:38:42.715Z,41493
2018-05-25T07:39:12.709Z,41517
2018-05-25T07:39:42.787Z,41487
2018-05-25T07:40:12.775Z,41507
2018-05-25T07:40:42.902Z,41573
2018-05-25T07:41:12.839Z,41613
2018-05-25T07:41:42.871Z,41740
2018-05-25T07:42:12.893Z,41853
2018-05-25T07:42:42.948Z,41983
2018-05-25T07:43:12.978Z,42297
2018-05-25T07:43:43.019Z,42457
2018-05-25T07:44:43.085Z,42373
2018-05-25T07:45:13.182Z,42293
2018-05-25T07:45:43.160Z,42307
2018-05-25T07:46:13.126Z,42423
2018-05-25T07:46:43.207Z,42570
2018-05-25T07:47:13.252Z,42767
2018-05-25T07:47:43.391Z,42847
2018-05-25T07:48:13.311Z,43120
2018-05-25T07:48:43.362Z,41113
2018-05-25T07:49:13.367Z,43247
2018-05-25T07:49:43.482Z,42683
2018-05-25T07:50:13.430Z,43453
2018-05-25T07:50:43.472Z,43433
2018-05-25T07:51:13.548Z,43523
2018-05-25T07:51:43.489Z,43550
2018-05-25T07:52:13.554Z,43480
2018-05-25T07:52:43.553Z,43623
2018-05-25T07:53:13.544Z,43647
2018-05-25T07:53:43.664Z,44017
2018-05-25T07:54:13.617Z,44013
2018-05-25T07:54:43.729Z,43997
2018-05-25T07:55:13.713Z,33330
2018-05-25T07:55:43.831Z,37603
2018-05-25T07:56:13.764Z,44287
2018-05-25T07:56:43.824Z,44257
2018-05-25T07:57:13.794Z,44097
2018-05-25T07:57:43.861Z,44207
2018-05-25T07:58:13.917Z,40523
2018-05-25T07:58:43.935Z,41453
2018-05-25T07:59:13.994Z,43253
2018-05-25T07:59:43.963Z,42840
2018-05-25T08:00:14.075Z,44710
2018-05-25T08:00:44.084Z,44730
2018-05-25T08:01:14.069Z,44817
2018-05-25T08:01:44.150Z,45200
2018-05-25T08:02:44.198Z,45110
2018-05-25T08:03:14.184Z,45290
2018-05-25T08:03:44.267Z,41650
2018-05-25T08:04:14.284Z,45417
2018-05-25T08:04:44.274Z,45657
2018-05-25T08:05:14.291Z,45783
2018-05-25T08:05:44.444Z,45933
2018-05-25T08:06:14.366Z,45663
2018-05-25T08:06:44.413Z,46120
2018-05-25T08:07:14.416Z,43773
2018-05-25T08:07:44.525Z,46330
2018-05-25T08:08:14.588Z,46493
2018-05-25T08:08:44.620Z,46373
2018-05-25T08:09:14.594Z,46333
2018-05-25T08:09:44.699Z,46447
2018-05-25T08:10:14.702Z,46370
2018-05-25T08:10:44.846Z,46577
2018-05-25T08:11:14.736Z,46640
2018-05-25T08:11:44.772Z,46710
2018-05-25T08:12:14.822Z,46923
2018-05-25T08:12:44.793Z,47030
2018-05-25T08:13:14.883Z,47057
2018-05-25T08:13:44.861Z,47167
2018-05-25T08:14:14.870Z,47223
2018-05-25T08:14:44.934Z,47323
2018-05-25T08:15:15.001Z,47437
2018-05-25T08:15:45.021Z,47487
2018-05-25T08:16:15.004Z,47607
2018-05-25T08:16:45.016Z,47530
2018-05-25T08:17:15.083Z,47520
2018-05-25T08:17:45.115Z,47593
2018-05-25T08:18:15.319Z,47870
2018-05-25T08:18:45.161Z,48020
2018-05-25T08:19:15.201Z,48137
2018-05-25T08:19:45.259Z,48250
2018-05-25T08:20:15.359Z,48200
2018-05-25T08:20:45.362Z,48473
2018-05-25T08:21:15.307Z,48603
2018-05-25T08:21:45.387Z,48703
2018-05-25T08:22:15.429Z,48737
2018-05-25T08:22:45.441Z,48653
2018-05-25T08:23:15.445Z,48807
2018-05-25T08:23:45.489Z,48980
2018-05-25T08:24:15.501Z,48970
2018-05-25T08:24:45.546Z,49167
2018-05-25T08:25:15.549Z,49073
2018-05-25T08:25:45.671Z,49383
2018-05-25T08:26:15.745Z,49437
2018-05-25T08:26:45.676Z,49497
2018-05-25T08:27:15.739Z,49710
2018-05-25T08:27:45.747Z,49713
2018-05-25T08:28:15.730Z,49677
2018-05-25T08:28:45.804Z,49660
2018-05-25T08:29:15.859Z,49563
2018-05-25T08:29:45.853Z,49743
2018-05-25T08:30:15.881Z,49690
2018-05-25T08:30:46.007Z,49930
2018-05-25T08:31:15.930Z,49917
2018-05-25T08:31:45.995Z,49897
2018-05-25T08:32:15.987Z,50067
2018-05-25T08:32:46.106Z,50290
2018-05-25T08:33:16.079Z,50470
2018-05-25T08:33:46.111Z,50650
2018-05-25T08:34:16.113Z,50810
2018-05-25T08:34:46.140Z,50847
2018-05-25T08:35:16.191Z,50880
2018-05-25T08:35:46.247Z,51140
2018-05-25T08:36:16.293Z,50750
2018-05-25T08:36:46.301Z,50743
2018-05-25T08:37:16.341Z,50807
2018-05-25T08:37:46.476Z,51007
2018-05-25T08:38:16.414Z,51297
2018-05-25T08:38:46.425Z,51427
2018-05-25T08:39:16.425Z,51423
2018-05-25T08:39:46.528Z,51670
2018-05-25T08:40:16.483Z,51557
2018-05-25T08:40:46.551Z,51797
2018-05-25T08:41:16.647Z,51850
2018-05-25T08:41:46.574Z,51840
2018-05-25T08:42:16.632Z,51800
2018-05-25T08:42:46.624Z,51997
2018-05-25T08:43:16.659Z,52623
2018-05-25T08:43:46.773Z,52470
2018-05-25T08:44:16.803Z,52107
2018-05-25T08:44:47.033Z,52497
2018-05-25T08:45:16.772Z,52510
2018-05-25T08:45:46.805Z,52500
2018-05-25T08:46:16.830Z,52727
2018-05-25T08:46:46.902Z,52680
2018-05-25T08:47:16.973Z,52497
2018-05-25T08:47:46.946Z,52710
2018-05-25T08:48:16.963Z,53013
2018-05-25T08:48:46.993Z,53077
2018-05-25T08:49:17.095Z,53133
2018-05-25T08:50:17.083Z,53050
2018-05-25T08:50:47.095Z,53107
2018-05-25T08:51:17.428Z,52893
2018-05-25T08:51:47.226Z,53067
2018-05-25T08:52:17.252Z,53187
2018-05-25T08:52:47.337Z,53263
2018-05-25T08:53:17.271Z,52923
2018-05-25T08:53:47.342Z,53243
2018-05-25T08:54:17.385Z,53720
2018-05-25T08:54:47.750Z,53870
2018-05-25T08:55:17.475Z,53773
2018-05-25T08:55:47.506Z,53987
2018-05-25T08:56:17.484Z,53883
2018-05-25T08:56:47.556Z,53833
2018-05-25T08:57:17.570Z,53767
2018-05-25T08:57:47.607Z,54060
2018-05-25T08:58:17.648Z,54307
2018-05-25T08:58:47.697Z,54360
2018-05-25T08:59:17.686Z,54233
2018-05-25T08:59:47.773Z,54217
2018-05-25T09:00:17.714Z,54400
2018-05-25T09:00:47.781Z,54760
2018-05-25T09:01:17.815Z,54477
2018-05-25T09:01:47.841Z,54007
2018-05-25T09:02:17.958Z,54063
2018-05-25T09:02:47.879Z,54227
2018-05-25T09:03:17.956Z,53953
2018-05-25T09:03:47.955Z,54837
2018-05-25T09:04:17.993Z,54133
2018-05-25T09:04:48.056Z,54430
2018-05-25T09:05:18.131Z,54303
2018-05-25T09:05:48.106Z,54197
2018-05-25T09:06:18.097Z,54937
2018-05-25T09:06:48.313Z,54810
2018-05-25T09:07:18.199Z,54860
2018-05-25T09:07:48.210Z,54737
2018-05-25T09:08:18.199Z,54963
2018-05-25T09:08:48.331Z,55053
2018-05-25T09:09:18.283Z,54837
2018-05-25T09:09:48.391Z,54760
2018-05-25T09:10:18.367Z,55173
2018-05-25T09:10:48.392Z,55280
2018-05-25T09:11:18.432Z,55390
2018-05-25T09:11:48.463Z,55123
2018-05-25T09:12:18.472Z,55357
2018-05-25T09:12:48.545Z,55857
2018-05-25T09:13:18.515Z,55563
2018-05-25T09:13:48.538Z,55300
2018-05-25T09:14:18.565Z,55683
2018-05-25T09:14:48.688Z,56073
2018-05-25T09:15:18.728Z,55630
2018-05-25T09:15:48.761Z,55447
2018-05-25T09:16:18.719Z,55480
2018-05-25T09:16:48.827Z,55397
2018-05-25T09:17:18.788Z,55667
2018-05-25T09:17:48.834Z,56097
2018-05-25T09:18:18.911Z,56347
2018-05-25T09:18:48.934Z,56273
2018-05-25T09:19:18.910Z,56083
2018-05-25T09:19:49.005Z,56077
2018-05-25T09:20:19.073Z,55753
2018-05-25T09:20:49.031Z,55780
2018-05-25T09:21:19.033Z,55163
2018-05-25T09:21:49.080Z,55097
2018-05-25T09:22:19.099Z,55713
2018-05-25T09:22:49.173Z,55187
2018-05-25T09:23:19.241Z,56333
2018-05-25T09:23:49.243Z,55977
2018-05-25T09:24:19.190Z,55590
2018-05-25T09:24:49.290Z,55700